Hauptseite
METAR-TAF:

METAR-TAF

Flughäfen :

Neuburg, Deutschland

Fliegerhorst Neuburg

Breite: 48-43N, Länge: 011-13E, Höhe: 380 m

Beobachtung

Neuester Wetterbericht von vor 21 Minuten, um 11:20 UTC
Wind 8 kt aus Ost
Temperatur 11°C
Luftfeuchtigkeit 54%
Luftdruck 1025 hPa
Sichtweite 10 km oder mehr
Durchbrochene Bewölkung in der Höhe von 28000 ft

METAR: ETSN 251120Z 08008KT 9999 BKN280 11/02 Q1025 BLU+

Zeit: 12:41 (11:41 UTC)

Prognose

Neuester Wetterbericht von vor 41 Minuten, um 11:00 UTC
Gültige Prognose vom 25 um 12 UTC bis 25 um 21 UTC
Wind 10 kt aus Ost/Nordost
Sichtweite 10 km oder mehr
Durchbrochene Bewölkung in der Höhe von 28000 ft

TAF: ETSN 251100Z 2512/2521 06010KT 9999 NSW BKN280 BY ETGL

Wetterbeobachtungen und Prognosen von mehr als 4000 Flughäfen (METAR und TAF Bericht).

Die verfügbaren Stationen werden durch gelbe und rote Markierungen auf der Karte dargestellt.

Führen Sie die Maus auf sie, um den Namen der Station zu sehen.

Darauf klicken, um die Beobachtung von Wetterbeobachtungen und Prognosen zu sehen.

Um die Karte zu ändern : klicken Sie auf den grünen Tasten mit einem schwarzen Kreuz Zum Vergrößern, auf den grünen Button mit einem Gedankenstrich zu verkleinern, oder auf die grünen Pfeile für benachbarte Karten.


METAR-TAF: